Time;durP1;ratioP1;P1;durP2;ratioP2;P2;SDS_P1;SDS_P2;PMS_P1;PMS_P2;Temp;Humidity;BMP_temperature;BMP_pressure;BME280_temperature;BME280_humidity;BME280_pressure;Samples;Min_cycle;Max_cycle;Signal;HPM_P1;HPM_P2
2020/01/25 00:01:45;;;;;;;16.4;7;;;;;;;2.41;73.89453;941.7413;;;;
2020/01/25 00:04:07;;;;;;;18;7.3;;;;;;;2.47;73.50293;941.8176;;;;
2020/01/25 00:06:32;;;;;;;25.2;9;;;;;;;2.38;73.45313;941.8078;;;;
2020/01/25 00:11:36;;;;;;;19.6;8.1;;;;;;;1.9;75.49609;941.8825;;;;
2020/01/25 00:14:10;;;;;;;14.4;6.8;;;;;;;1.75;76.0957;941.8159;;;;
2020/01/25 00:19:24;;;;;;;16.5;6.9;;;;;;;1.63;76.52148;941.8292;;;;
2020/01/25 00:21:43;;;;;;;19.9;7.5;;;;;;;1.59;77.03906;941.8071;;;;
2020/01/25 00:24:08;;;;;;;14.4;7.4;;;;;;;1.59;76.96289;941.8262;;;;
2020/01/25 00:26:48;;;;;;;17.5;7.6;;;;;;;1.49;77.21289;941.7949;;;;
2020/01/25 00:29:17;;;;;;;18.3;7.1;;;;;;;1.48;77.14355;941.7558;;;;
2020/01/25 00:31:55;;;;;;;17.2;6.3;;;;;;;1.5;77.04688;941.709;;;;
2020/01/25 00:34:10;;;;;;;17.7;6.7;;;;;;;1.55;76.75098;941.5729;;;;
2020/01/25 00:36:34;;;;;;;17.4;6.3;;;;;;;1.62;76.30762;941.6017;;;;
2020/01/25 00:39:03;;;;;;;18.5;6.6;;;;;;;1.72;75.96777;941.6794;;;;
2020/01/25 00:41:28;;;;;;;18.5;7.2;;;;;;;1.69;75.96289;941.6978;;;;
2020/01/25 00:43:54;;;;;;;18.3;8.2;;;;;;;1.55;76.63965;941.747;;;;
2020/01/25 00:46:19;;;;;;;22.6;9.2;;;;;;;1.47;76.97266;941.6753;;;;
2020/01/25 00:48:44;;;;;;;18.4;7.9;;;;;;;1.42;76.98535;941.6459;;;;
2020/01/25 00:51:09;;;;;;;21.5;8.3;;;;;;;1.48;76.74023;941.663;;;;
2020/01/25 00:53:34;;;;;;;19.1;7.7;;;;;;;1.52;76.48926;941.6962;;;;
2020/01/25 00:56:13;;;;;;;17.8;7.8;;;;;;;1.39;76.63379;941.6528;;;;
2020/01/25 00:58:39;;;;;;;17.5;7.6;;;;;;;1.35;76.95313;941.6316;;;;
2020/01/25 01:01:12;;;;;;;15.3;6.8;;;;;;;1.31;77.70508;941.6616;;;;
2020/01/25 01:03:35;;;;;;;19.1;7.2;;;;;;;1.48;77.34473;941.6908;;;;
2020/01/25 01:06:20;;;;;;;17.3;7.3;;;;;;;1.59;76.98438;941.6294;;;;
2020/01/25 01:08:47;;;;;;;19.7;9;;;;;;;1.59;76.55957;941.7361;;;;
2020/01/25 01:11:12;;;;;;;17.3;7.8;;;;;;;1.44;76.61035;941.6707;;;;
2020/01/25 01:13:39;;;;;;;21.8;7.4;;;;;;;1.17;77.57813;941.6788;;;;
2020/01/25 01:16:02;;;;;;;18.2;6.9;;;;;;;1.08;78.05273;941.6727;;;;
2020/01/25 01:18:27;;;;;;;14.3;6.3;;;;;;;1.03;78.40137;941.6412;;;;
2020/01/25 01:20:53;;;;;;;17.6;6.7;;;;;;;1.03;78.50195;941.613;;;;
2020/01/25 01:23:29;;;;;;;15.6;7.5;;;;;;;0.97;78.73633;941.5334;;;;
2020/01/25 01:25:57;;;;;;;13.5;6.3;;;;;;;0.97;78.89258;941.5422;;;;
2020/01/25 01:28:20;;;;;;;12.3;5.9;;;;;;;0.97;78.8252;941.5854;;;;
2020/01/25 01:30:45;;;;;;;19;6.2;;;;;;;0.96;79.01172;941.6082;;;;
2020/01/25 01:33:10;;;;;;;14;5.6;;;;;;;0.96;78.92383;941.5536;;;;
2020/01/25 01:35:35;;;;;;;14.4;5.6;;;;;;;1.03;78.64746;941.5321;;;;
2020/01/25 01:38:00;;;;;;;13.5;5;;;;;;;1.02;78.59961;941.468;;;;
2020/01/25 01:40:42;;;;;;;14.1;5.5;;;;;;;1.08;78.28711;941.4609;;;;
2020/01/25 01:43:08;;;;;;;15.8;5.6;;;;;;;1.23;77.52246;941.4249;;;;
2020/01/25 01:45:48;;;;;;;12.6;5;;;;;;;1.2;77.52832;941.3433;;;;
2020/01/25 01:48:13;;;;;;;17.2;4.8;;;;;;;1.12;77.67969;941.3577;;;;
2020/01/25 01:50:39;;;;;;;14.9;4.9;;;;;;;1.05;78.07129;941.397;;;;
2020/01/25 01:53:04;;;;;;;12.8;5.4;;;;;;;1.02;78.56738;941.4133;;;;
2020/01/25 01:55:36;;;;;;;14;5.9;;;;;;;0.97;79.05859;941.3365;;;;
2020/01/25 01:58:02;;;;;;;14.5;5.7;;;;;;;1.03;78.75879;941.274;;;;
2020/01/25 02:00:29;;;;;;;16.4;5.8;;;;;;;1.03;78.70313;941.3401;;;;
2020/01/25 02:03:09;;;;;;;12.3;5.5;;;;;;;1.01;78.58691;941.3201;;;;
2020/01/25 02:05:34;;;;;;;11.2;5.4;;;;;;;1.01;78.56445;941.2937;;;;
2020/01/25 02:07:59;;;;;;;14.8;5.7;;;;;;;1.01;78.57715;941.3369;;;;
2020/01/25 02:10:24;;;;;;;15.4;5.2;;;;;;;1.17;78.14746;941.4043;;;;
2020/01/25 02:12:49;;;;;;;13;5.3;;;;;;;1.27;77.48438;941.3528;;;;
2020/01/25 02:15:14;;;;;;;12.2;5;;;;;;;1.32;76.99023;941.3773;;;;
2020/01/25 02:17:51;;;;;;;12.3;5.2;;;;;;;1.34;76.60352;941.3958;;;;
2020/01/25 02:20:16;;;;;;;12.4;4.9;;;;;;;1.42;76.78418;941.4067;;;;
2020/01/25 02:22:55;;;;;;;13.3;5.3;;;;;;;1.4;76.60352;941.4361;;;;
2020/01/25 02:25:37;;;;;;;16;5.5;;;;;;;1.37;77.80469;941.3954;;;;
2020/01/25 02:28:03;;;;;;;17.8;6;;;;;;;1.3;77.73633;941.3969;;;;
2020/01/25 02:30:36;;;;;;;15.2;5.8;;;;;;;1.32;77.06836;941.3223;;;;
2020/01/25 02:33:47;;;;;;;16.8;5.4;;;;;;;1.31;76.93262;941.2975;;;;
2020/01/25 02:35:26;;;;;;;15.2;5.5;;;;;;;1.3;76.76465;941.3647;;;;
2020/01/25 02:37:48;;;;;;;10.2;5;;;;;;;1.24;76.8877;941.3554;;;;
2020/01/25 02:40:22;;;;;;;11.7;5.3;;;;;;;1.2;77.16992;941.3295;;;;
2020/01/25 02:42:55;;;;;;;14.2;5.4;;;;;;;1.15;77.0957;941.3571;;;;
2020/01/25 02:45:26;;;;;;;14;4.9;;;;;;;1.12;77.28906;941.2864;;;;
2020/01/25 02:47:52;;;;;;;12.4;4.8;;;;;;;1.08;77.18164;941.2109;;;;
2020/01/25 02:50:24;;;;;;;14;5.1;;;;;;;0.98;77.47656;941.3606;;;;
2020/01/25 02:52:49;;;;;;;13;5.3;;;;;;;0.87;77.37793;941.3625;;;;
2020/01/25 02:55:19;;;;;;;13.2;5.3;;;;;;;0.95;77.56055;941.3326;;;;
2020/01/25 02:57:45;;;;;;;13;5.2;;;;;;;1.01;77.6709;941.2935;;;;
2020/01/25 03:00:21;;;;;;;13.6;5.3;;;;;;;1.03;77.37402;941.2756;;;;
2020/01/25 03:02:44;;;;;;;11.3;5.8;;;;;;;1.06;77.23438;941.2536;;;;
2020/01/25 03:05:15;;;;;;;15.2;5.8;;;;;;;0.98;77.38672;941.2681;;;;
2020/01/25 03:07:41;;;;;;;13.7;5.4;;;;;;;0.83;77.81836;941.2312;;;;
2020/01/25 03:10:06;;;;;;;13.5;4.5;;;;;;;0.82;77.74902;941.2377;;;;
2020/01/25 03:12:31;;;;;;;14.3;4.4;;;;;;;0.8;77.72168;941.261;;;;
2020/01/25 03:14:56;;;;;;;11.2;4.8;;;;;;;0.74;77.87988;941.2209;;;;
2020/01/25 03:17:21;;;;;;;11.2;4.7;;;;;;;0.75;77.75879;941.2322;;;;
2020/01/25 03:19:47;;;;;;;12.4;4.1;;;;;;;0.8;77.61035;941.2527;;;;
2020/01/25 03:22:12;;;;;;;14;4.4;;;;;;;0.87;77.38965;941.2151;;;;
2020/01/25 03:24:37;;;;;;;12.1;3.9;;;;;;;0.94;77.13477;941.2302;;;;
2020/01/25 03:27:02;;;;;;;12.2;4.3;;;;;;;0.99;76.64063;941.1905;;;;
2020/01/25 03:29:28;;;;;;;13.6;4.3;;;;;;;1.05;77.29004;941.2119;;;;
2020/01/25 03:31:53;;;;;;;10.3;4.1;;;;;;;1.06;76.91016;941.2115;;;;
2020/01/25 03:34:19;;;;;;;12.1;4.5;;;;;;;1.08;77.27051;941.2311;;;;
2020/01/25 03:36:44;;;;;;;11.7;4.6;;;;;;;1.1;77.44141;941.2525;;;;
2020/01/25 03:39:09;;;;;;;11.2;4.7;;;;;;;1.08;76.74609;941.2719;;;;
2020/01/25 03:41:34;;;;;;;16.8;4.6;;;;;;;1.09;76.29004;941.267;;;;
2020/01/25 03:44:00;;;;;;;14.3;4.5;;;;;;;1.13;76.13965;941.3362;;;;
2020/01/25 03:46:29;;;;;;;10.5;4.3;;;;;;;1.12;76.4082;941.3133;;;;
2020/01/25 03:48:50;;;;;;;11.8;4.1;;;;;;;0.97;76.64844;941.2748;;;;
2020/01/25 03:51:18;;;;;;;10.8;4.8;;;;;;;0.88;76.73242;941.3282;;;;
2020/01/25 03:53:40;;;;;;;12.6;5.5;;;;;;;0.66;77.21777;941.3303;;;;
2020/01/25 03:56:06;;;;;;;15.5;6.9;;;;;;;0.35;78.59766;941.4109;;;;
2020/01/25 03:58:31;;;;;;;19;7.1;;;;;;;0.25;79.2168;941.4543;;;;
2020/01/25 04:02:30;;;;;;;15.1;7.3;;;;;;;0.14;79.7627;941.3586;;;;
2020/01/25 04:04:55;;;;;;;14.4;6.4;;;;;;;0.01;80.12891;941.4724;;;;
2020/01/25 04:07:20;;;;;;;15.4;4.8;;;;;;;-0.03;80.50977;941.4819;;;;
2020/01/25 04:09:45;;;;;;;15.5;5;;;;;;;0.18;79.80469;941.4572;;;;
2020/01/25 04:12:10;;;;;;;16.7;5.1;;;;;;;0.35;79.01074;941.4419;;;;
2020/01/25 04:14:35;;;;;;;12.9;5.1;;;;;;;0.47;78.58789;941.4636;;;;
2020/01/25 04:17:00;;;;;;;13.2;4.9;;;;;;;0.57;77.95801;941.456;;;;
2020/01/25 04:19:26;;;;;;;10.9;5;;;;;;;0.59;77.46094;941.468;;;;
2020/01/25 04:21:51;;;;;;;16.3;5.4;;;;;;;0.64;77.41309;941.4575;;;;
2020/01/25 04:24:16;;;;;;;12.7;5;;;;;;;0.71;77.06934;941.4244;;;;
2020/01/25 04:26:41;;;;;;;14;4.9;;;;;;;0.69;76.83301;941.4911;;;;
2020/01/25 04:29:06;;;;;;;15.8;5.3;;;;;;;0.64;77.18066;941.5276;;;;
2020/01/25 04:31:31;;;;;;;17.8;5.6;;;;;;;0.61;77.0957;941.5361;;;;
2020/01/25 04:33:57;;;;;;;14.4;5.5;;;;;;;0.52;77.38086;941.5289;;;;
2020/01/25 04:36:22;;;;;;;14.7;5.3;;;;;;;0.44;77.5127;941.5782;;;;
2020/01/25 04:38:47;;;;;;;13.2;5.1;;;;;;;0.41;77.69531;941.6124;;;;
2020/01/25 04:41:13;;;;;;;14.6;5;;;;;;;0.42;77.65234;941.6038;;;;
2020/01/25 04:43:38;;;;;;;13.1;4.3;;;;;;;0.44;77.90137;941.5466;;;;
2020/01/25 04:46:07;;;;;;;10.5;4.4;;;;;;;0.48;77.26074;941.5908;;;;
2020/01/25 04:48:28;;;;;;;15.2;4.6;;;;;;;0.48;77.13965;941.6005;;;;
2020/01/25 04:50:53;;;;;;;15.3;4.7;;;;;;;0.53;76.86914;941.6563;;;;
2020/01/25 04:53:18;;;;;;;15.8;4.6;;;;;;;0.58;76.2207;941.6214;;;;
2020/01/25 04:55:43;;;;;;;12.6;4.9;;;;;;;0.66;76.49219;941.5685;;;;
2020/01/25 04:58:28;;;;;;;15.8;6;;;;;;;0.62;76.5752;941.5868;;;;
2020/01/25 05:00:38;;;;;;;14.5;6;;;;;;;0.45;76.95508;941.6568;;;;
2020/01/25 05:02:59;;;;;;;19.7;7.3;;;;;;;0.21;78.08203;941.6916;;;;
2020/01/25 05:05:29;;;;;;;40.1;20.1;;;;;;;0.06;78.79102;941.7469;;;;
2020/01/25 05:07:49;;;;;;;54.1;26;;;;;;;0.09;78.91699;941.6866;;;;
2020/01/25 05:10:14;;;;;;;37.7;19.3;;;;;;;0.11;78.9668;941.7775;;;;
2020/01/25 05:12:39;;;;;;;25.1;9.8;;;;;;;0.17;78.75391;941.7958;;;;
2020/01/25 05:15:05;;;;;;;15.1;8.2;;;;;;;0.14;78.7373;941.849;;;;
2020/01/25 05:17:30;;;;;;;38.8;18.4;;;;;;;0.1;78.8623;941.8271;;;;
2020/01/25 05:19:55;;;;;;;34.6;16.7;;;;;;;0.15;78.84082;941.7737;;;;
2020/01/25 05:22:20;;;;;;;32.5;13.9;;;;;;;0.26;78.4375;941.8026;;;;
2020/01/25 05:24:45;;;;;;;21.8;9.9;;;;;;;0.38;77.7334;941.8971;;;;
2020/01/25 05:27:10;;;;;;;24.8;9.2;;;;;;;0.41;77.53711;941.9373;;;;
2020/01/25 05:29:35;;;;;;;23.6;10.2;;;;;;;0.42;77.44043;941.9609;;;;
2020/01/25 05:32:00;;;;;;;22.4;10.1;;;;;;;0.41;77.60645;941.9595;;;;
2020/01/25 05:34:26;;;;;;;18.1;8;;;;;;;0.32;77.71191;941.9794;;;;
2020/01/25 05:36:51;;;;;;;18.5;8.1;;;;;;;0.19;77.88965;941.9739;;;;
2020/01/25 05:39:16;;;;;;;16;8;;;;;;;0.09;78.22559;941.9174;;;;
2020/01/25 05:41:41;;;;;;;16.1;7.5;;;;;;;-0.05;78.90234;942.0027;;;;
2020/01/25 05:44:06;;;;;;;14.2;7.3;;;;;;;0.06;78.65723;941.9645;;;;
2020/01/25 05:46:45;;;;;;;17.5;7.5;;;;;;;0.15;78.70703;942.1182;;;;
2020/01/25 05:48:56;;;;;;;13.9;6.8;;;;;;;0.27;78.36133;942.1132;;;;
2020/01/25 05:51:21;;;;;;;16.6;7.6;;;;;;;0.36;77.78516;942.1294;;;;
2020/01/25 05:53:46;;;;;;;21.4;8.6;;;;;;;0.3;77.77539;942.1697;;;;
2020/01/25 05:56:12;;;;;;;16.6;7.4;;;;;;;0.29;77.78516;942.1789;;;;
2020/01/25 05:58:37;;;;;;;16.7;7.4;;;;;;;0.33;77.37793;942.1833;;;;
2020/01/25 06:01:05;;;;;;;16.1;7.7;;;;;;;0.35;77.41602;942.22;;;;
2020/01/25 06:03:27;;;;;;;14.7;6.8;;;;;;;0.42;77.0498;942.1574;;;;
2020/01/25 06:05:52;;;;;;;16;7.8;;;;;;;0.43;77.26367;942.2964;;;;
2020/01/25 06:08:17;;;;;;;16.3;7.1;;;;;;;0.39;77.26855;942.2902;;;;
2020/01/25 06:10:42;;;;;;;13.6;5.9;;;;;;;0.38;77.65527;942.2894;;;;
2020/01/25 06:13:08;;;;;;;13.6;5.8;;;;;;;0.39;77.17773;942.3621;;;;
2020/01/25 06:15:39;;;;;;;18.4;9.5;;;;;;;0.29;77.42871;942.3123;;;;
2020/01/25 06:17:58;;;;;;;31.7;17.3;;;;;;;0.22;77.96094;942.3038;;;;
2020/01/25 06:20:23;;;;;;;30.6;16.1;;;;;;;0.25;77.67773;942.3283;;;;
2020/01/25 06:22:48;;;;;;;25.4;14.8;;;;;;;0.35;77.90625;942.3344;;;;
2020/01/25 06:25:28;;;;;;;19.8;11;;;;;;;0.39;78.31445;942.3025;;;;
2020/01/25 06:27:53;;;;;;;27.3;13.3;;;;;;;0.5;77.68945;942.3;;;;
2020/01/25 06:30:19;;;;;;;25.5;12.8;;;;;;;0.46;77.4248;942.3191;;;;
2020/01/25 06:32:44;;;;;;;134.6;114.7;;;;;;;0.36;77.8418;942.3362;;;;
2020/01/25 06:35:09;;;;;;;62.2;51.1;;;;;;;0.3;78.21191;942.3069;;;;
2020/01/25 06:37:34;;;;;;;23.7;11.5;;;;;;;0.21;78.56152;942.2491;;;;
2020/01/25 06:39:59;;;;;;;70.6;34.7;;;;;;;0.22;78.65039;942.259;;;;
2020/01/25 06:42:24;;;;;;;79.2;38.9;;;;;;;0.36;78.37695;942.2469;;;;
2020/01/25 06:44:49;;;;;;;65.3;30.9;;;;;;;0.47;77.7627;942.2056;;;;
2020/01/25 06:47:14;;;;;;;78.1;35;;;;;;;0.59;77.33789;942.1584;;;;
2020/01/25 06:49:43;;;;;;;85.6;36.2;;;;;;;0.58;76.70996;942.2472;;;;
2020/01/25 06:52:25;;;;;;;66.2;29;;;;;;;0.63;76.70898;942.2164;;;;
2020/01/25 06:56:55;;;;;;;52.2;24.8;;;;;;;0.72;76.0332;942.1465;;;;
2020/01/25 06:59:20;;;;;;;163.4;69.4;;;;;;;0.61;76.70508;942.1824;;;;
2020/01/25 07:01:45;;;;;;;48.3;23.3;;;;;;;0.58;76.375;942.2285;;;;
2020/01/25 07:04:49;;;;;;;42.8;23.3;;;;;;;0.51;76.81934;942.2676;;;;
2020/01/25 07:09:19;;;;;;;31.8;16.5;;;;;;;0.76;75.97266;942.2506;;;;
2020/01/25 07:11:26;;;;;;;30.8;16.7;;;;;;;0.68;76.27246;942.2403;;;;
2020/01/25 07:13:51;;;;;;;47;28.6;;;;;;;0.55;76.73828;942.3293;;;;
2020/01/25 07:16:16;;;;;;;36.6;21.6;;;;;;;0.51;77.06641;942.3017;;;;
2020/01/25 07:18:41;;;;;;;26.7;14.9;;;;;;;0.62;76.81836;942.3168;;;;
2020/01/25 07:21:06;;;;;;;28.2;14.5;;;;;;;0.71;76.31055;942.3625;;;;
2020/01/25 07:23:31;;;;;;;25.6;14;;;;;;;0.67;76.41406;942.3696;;;;
2020/01/25 07:25:56;;;;;;;21.2;11.9;;;;;;;0.67;76.53809;942.3552;;;;
2020/01/25 07:28:21;;;;;;;83.1;47.7;;;;;;;0.67;76.67188;942.2664;;;;
2020/01/25 07:30:46;;;;;;;33.5;19.2;;;;;;;0.72;76.74707;942.4265;;;;
2020/01/25 07:33:11;;;;;;;29.1;15.4;;;;;;;0.83;75.86328;942.4504;;;;
2020/01/25 07:35:36;;;;;;;26.9;15.3;;;;;;;0.92;75.65625;942.4506;;;;
2020/01/25 07:38:01;;;;;;;24.7;14.1;;;;;;;1.07;75.00195;942.4877;;;;
2020/01/25 07:40:26;;;;;;;26.9;13.5;;;;;;;1.14;74.58887;942.575;;;;
2020/01/25 07:42:52;;;;;;;25.5;12.4;;;;;;;1.28;74.2793;942.4985;;;;
2020/01/25 07:45:17;;;;;;;34.5;20.2;;;;;;;1.24;74.02734;942.4936;;;;
2020/01/25 07:47:42;;;;;;;47.4;29.8;;;;;;;1.17;74.21582;942.5436;;;;
2020/01/25 07:50:07;;;;;;;21.9;12.9;;;;;;;1.18;74.40723;942.5128;;;;
2020/01/25 07:52:32;;;;;;;24;10.6;;;;;;;1.11;74.40527;942.3777;;;;
2020/01/25 07:54:57;;;;;;;37.1;22.9;;;;;;;1.1;74.4043;942.4638;;;;
2020/01/25 07:57:22;;;;;;;24.2;11;;;;;;;1.05;74.95605;942.4695;;;;
2020/01/25 07:59:56;;;;;;;17.1;9.2;;;;;;;1.07;74.73438;942.4584;;;;
2020/01/25 08:02:19;;;;;;;19.4;7.9;;;;;;;1.12;74.58691;942.3343;;;;
2020/01/25 08:04:38;;;;;;;44;24.2;;;;;;;1.29;74.03516;942.4417;;;;
2020/01/25 08:07:03;;;;;;;57.5;32;;;;;;;1.26;73.32617;942.3651;;;;
2020/01/25 08:09:28;;;;;;;32;18.1;;;;;;;1.25;73.52637;942.3338;;;;
2020/01/25 08:11:53;;;;;;;104.2;65.9;;;;;;;1.44;73.23438;942.3627;;;;
2020/01/25 08:14:18;;;;;;;51.5;32;;;;;;;1.72;73.85352;942.3742;;;;
2020/01/25 08:17:00;;;;;;;77.2;49.2;;;;;;;1.94;72.50488;942.3816;;;;
2020/01/25 08:19:09;;;;;;;41.9;25.7;;;;;;;2.07;72.13477;942.332;;;;
2020/01/25 08:21:34;;;;;;;39;23.4;;;;;;;2.08;71.3623;942.3865;;;;
2020/01/25 08:23:59;;;;;;;41.8;26.6;;;;;;;2.22;70.74902;942.4052;;;;
2020/01/25 08:26:24;;;;;;;28.3;14.4;;;;;;;2.27;70.08594;942.4155;;;;
2020/01/25 08:28:49;;;;;;;32;16.8;;;;;;;2.41;70.30957;942.4356;;;;
2020/01/25 08:31:14;;;;;;;27.4;14.4;;;;;;;2.54;70.38867;942.4647;;;;
2020/01/25 08:33:41;;;;;;;22.2;12.1;;;;;;;2.58;70.14746;942.3855;;;;
2020/01/25 08:36:10;;;;;;;20.7;10.7;;;;;;;2.67;70.24121;942.415;;;;
2020/01/25 08:38:32;;;;;;;21.9;10.8;;;;;;;2.79;69.4082;942.308;;;;
2020/01/25 08:40:55;;;;;;;30.1;17.7;;;;;;;2.89;69.25781;942.4905;;;;
2020/01/25 08:43:20;;;;;;;24.6;13.2;;;;;;;2.95;69.30078;942.5049;;;;
2020/01/25 08:45:45;;;;;;;22.9;13.3;;;;;;;3.1;67.87793;942.5105;;;;
2020/01/25 08:48:11;;;;;;;36.4;21.4;;;;;;;3.17;67.66504;942.522;;;;
2020/01/25 08:50:36;;;;;;;37.5;23.1;;;;;;;3.09;67.94238;942.5797;;;;
2020/01/25 08:53:01;;;;;;;34.9;19.7;;;;;;;2.98;68.0498;942.6023;;;;
2020/01/25 08:55:26;;;;;;;22.6;13;;;;;;;2.96;68.25977;942.6086;;;;
2020/01/25 08:57:51;;;;;;;28.8;17.6;;;;;;;3.09;67.79785;942.6214;;;;
2020/01/25 09:00:25;;;;;;;45.5;25.6;;;;;;;3.33;69.03613;942.6119;;;;
2020/01/25 09:02:50;;;;;;;34.3;20.9;;;;;;;3.48;68.58984;942.6298;;;;
2020/01/25 09:05:16;;;;;;;22.5;11.7;;;;;;;3.65;66.17969;942.5812;;;;
2020/01/25 09:07:41;;;;;;;18.9;9.4;;;;;;;3.75;66.28613;942.6509;;;;
2020/01/25 09:10:06;;;;;;;18.1;9.7;;;;;;;3.82;65.40625;942.7051;;;;
2020/01/25 09:12:31;;;;;;;17.1;7.9;;;;;;;3.64;65.17676;942.6744;;;;
2020/01/25 09:14:56;;;;;;;19;10;;;;;;;3.62;65.9502;942.6936;;;;
2020/01/25 09:17:21;;;;;;;13.9;7.3;;;;;;;3.56;65.10938;942.6686;;;;
2020/01/25 09:19:46;;;;;;;16.1;6.3;;;;;;;3.45;65.5752;942.6994;;;;
2020/01/25 09:22:11;;;;;;;15.5;6.7;;;;;;;3.56;65.75;942.6567;;;;
2020/01/25 09:24:36;;;;;;;17;8.9;;;;;;;3.82;64.76563;942.6461;;;;
2020/01/25 09:27:01;;;;;;;18.9;9.9;;;;;;;4.03;64.30371;942.6638;;;;
2020/01/25 09:37:05;;;;;;;24;12.5;;;;;;;4.3;62.46387;942.5684;;;;
2020/01/25 09:39:09;;;;;;;29.9;19.1;;;;;;;4.48;62.68359;942.6058;;;;
2020/01/25 09:41:32;;;;;;;20.6;10.8;;;;;;;4.41;62.67383;942.6238;;;;
2020/01/25 09:43:57;;;;;;;17;9.9;;;;;;;4.44;62.03613;942.6083;;;;
2020/01/25 09:46:22;;;;;;;18;8.9;;;;;;;4.37;63.04883;942.6169;;;;
2020/01/25 09:48:48;;;;;;;18.5;9.6;;;;;;;4.44;63.21875;942.5869;;;;
2020/01/25 09:51:13;;;;;;;23.4;11.5;;;;;;;4.49;63.03223;942.5223;;;;
2020/01/25 09:53:38;;;;;;;25.3;15.9;;;;;;;4.59;63.03711;942.5927;;;;
2020/01/25 09:56:03;;;;;;;21.7;15.7;;;;;;;4.62;62.24121;942.5726;;;;
2020/01/25 09:58:28;;;;;;;17.9;11.3;;;;;;;4.37;62.75781;942.5335;;;;
2020/01/25 10:00:54;;;;;;;21.5;11.1;;;;;;;4.61;63.09473;942.5123;;;;
2020/01/25 10:03:19;;;;;;;22.4;10.7;;;;;;;4.67;62.42969;942.5795;;;;
2020/01/25 10:05:44;;;;;;;22.1;12.1;;;;;;;4.84;62.3418;942.5422;;;;
2020/01/25 10:08:09;;;;;;;21.5;11.6;;;;;;;5.07;62.21777;942.5722;;;;
2020/01/25 10:10:35;;;;;;;24.1;11.8;;;;;;;5.34;61.65918;942.5247;;;;
2020/01/25 10:13:00;;;;;;;20.5;10.4;;;;;;;5.41;60.28125;942.4896;;;;
2020/01/25 10:15:25;;;;;;;26;13.8;;;;;;;5.41;60.52832;942.4886;;;;
2020/01/25 10:17:50;;;;;;;19;10.9;;;;;;;5.5;60.13477;942.3781;;;;
2020/01/25 10:20:15;;;;;;;20.2;9.9;;;;;;;5.43;59.6875;942.4903;;;;
2020/01/25 10:22:40;;;;;;;21.6;12;;;;;;;5.61;59.72363;942.3713;;;;
2020/01/25 10:25:05;;;;;;;19.9;10.2;;;;;;;5.68;58.35547;942.4036;;;;
2020/01/25 10:27:30;;;;;;;20.9;8.7;;;;;;;5.63;58.30273;942.3663;;;;
2020/01/25 10:29:56;;;;;;;19.7;8.2;;;;;;;5.7;58.21094;942.3752;;;;
2020/01/25 10:32:21;;;;;;;14.2;6.6;;;;;;;5.72;57.83008;942.3102;;;;
2020/01/25 10:34:46;;;;;;;16.2;6.5;;;;;;;5.66;57.38086;942.2876;;;;
2020/01/25 10:37:11;;;;;;;15.3;6.5;;;;;;;5.66;57.53906;942.2646;;;;
2020/01/25 10:39:36;;;;;;;19.6;7.4;;;;;;;5.85;56.9209;942.247;;;;
2020/01/25 10:42:01;;;;;;;20.1;7;;;;;;;5.89;56.92676;942.2759;;;;
2020/01/25 10:44:26;;;;;;;17.8;7.3;;;;;;;5.9;56.50977;942.2748;;;;
2020/01/25 10:46:51;;;;;;;21.9;10.4;;;;;;;5.89;57.0752;942.2056;;;;
2020/01/25 10:49:16;;;;;;;42.3;19.1;;;;;;;6.16;56.73633;942.2277;;;;
2020/01/25 10:51:42;;;;;;;28.6;10.2;;;;;;;6.48;55.94141;942.1948;;;;
2020/01/25 10:54:07;;;;;;;26.4;8.8;;;;;;;6.7;55.74512;942.1646;;;;
2020/01/25 10:56:32;;;;;;;44.8;10.3;;;;;;;6.97;54.89648;942.1531;;;;
2020/01/25 10:58:57;;;;;;;43.7;10.1;;;;;;;7.34;54.93262;942.0199;;;;
2020/01/25 11:01:22;;;;;;;39.2;9.9;;;;;;;7.55;53.53027;942.0631;;;;
2020/01/25 11:03:47;;;;;;;27;8.6;;;;;;;7.69;52.13086;942.026;;;;
2020/01/25 11:06:12;;;;;;;36.3;9.3;;;;;;;7.8;52.56348;942.1097;;;;
2020/01/25 11:08:37;;;;;;;41.7;9.9;;;;;;;8.01;53.04297;942.0616;;;;
2020/01/25 11:11:02;;;;;;;37.1;9.7;;;;;;;8.08;50.82715;942.0673;;;;
2020/01/25 11:13:27;;;;;;;37.1;8.3;;;;;;;8.07;51.5752;941.9998;;;;
2020/01/25 11:15:52;;;;;;;34.9;7.4;;;;;;;8.08;51.23438;941.9888;;;;
2020/01/25 11:18:18;;;;;;;30.1;7.5;;;;;;;8.17;50.99512;941.9433;;;;
2020/01/25 11:20:46;;;;;;;34.8;10.9;;;;;;;8.18;49.95313;941.9445;;;;
2020/01/25 11:23:11;;;;;;;29.7;12.1;;;;;;;8.29;51.10156;941.9465;;;;
2020/01/25 11:25:36;;;;;;;23.6;9.7;;;;;;;8.32;51.63867;941.9401;;;;
2020/01/25 11:30:29;;;;;;;28.1;10.8;;;;;;;8.4;51.18262;941.8853;;;;
2020/01/25 11:35:18;;;;;;;38.3;10.6;;;;;;;8.67;51.18066;941.753;;;;
2020/01/25 11:40:08;;;;;;;30.6;10.7;;;;;;;9.01;51.75488;941.6577;;;;
2020/01/25 11:42:33;;;;;;;44.1;12.1;;;;;;;8.92;49.0498;941.6412;;;;
2020/01/25 11:44:58;;;;;;;24.4;10.6;;;;;;;8.57;49.00879;941.6767;;;;
2020/01/25 11:47:24;;;;;;;21.5;9.7;;;;;;;8.67;50.39648;941.5291;;;;
2020/01/25 11:49:49;;;;;;;23.7;11.2;;;;;;;8.65;48.90332;941.4963;;;;
2020/01/25 11:52:14;;;;;;;55.3;14;;;;;;;8.65;50.8252;941.531;;;;
2020/01/25 11:54:40;;;;;;;52;14;;;;;;;8.67;50.02051;941.4767;;;;
2020/01/25 11:57:05;;;;;;;69.1;16.8;;;;;;;8.63;50.03809;941.4704;;;;
2020/01/25 11:59:30;;;;;;;49.5;15.9;;;;;;;8.73;51.1416;941.3842;;;;
2020/01/25 12:01:55;;;;;;;64.4;13.4;;;;;;;8.83;50.2334;941.4099;;;;
2020/01/25 12:04:20;;;;;;;43;12.3;;;;;;;8.99;50.85449;941.3845;;;;
2020/01/25 12:06:46;;;;;;;28.9;10.7;;;;;;;9.07;49.04297;941.3656;;;;
2020/01/25 12:09:11;;;;;;;47.7;13.5;;;;;;;8.92;49.34473;941.2989;;;;
2020/01/25 12:11:36;;;;;;;46.2;12.3;;;;;;;8.96;49.95215;941.345;;;;
2020/01/25 12:14:01;;;;;;;48;13;;;;;;;9.11;50.26465;941.2879;;;;
2020/01/25 12:16:26;;;;;;;47.8;13.2;;;;;;;9.19;49.30664;941.3092;;;;
2020/01/25 12:18:51;;;;;;;39;13.7;;;;;;;9.04;49.0498;941.2642;;;;
2020/01/25 12:21:16;;;;;;;33.4;12.6;;;;;;;8.88;49.6582;941.2425;;;;
2020/01/25 12:23:42;;;;;;;44.8;12.7;;;;;;;8.81;49.65039;941.2203;;;;
2020/01/25 12:26:07;;;;;;;43.9;12.1;;;;;;;8.58;50.14551;941.1934;;;;
2020/01/25 12:28:32;;;;;;;27.6;11;;;;;;;8.56;50.16797;941.1415;;;;
2020/01/25 12:30:57;;;;;;;68.6;14;;;;;;;8.62;50.67383;941.0811;;;;
2020/01/25 12:33:22;;;;;;;39.5;12;;;;;;;8.76;50.37109;941.0181;;;;
2020/01/25 12:35:47;;;;;;;38.9;11.2;;;;;;;8.91;51.62891;941.0303;;;;
2020/01/25 12:38:13;;;;;;;33.2;11.5;;;;;;;9.07;51.61621;941.0687;;;;
2020/01/25 12:40:40;;;;;;;27.7;11.5;;;;;;;9.22;52.08691;941.0416;;;;
2020/01/25 12:43:05;;;;;;;28.5;11.1;;;;;;;9.32;51.14258;941.0219;;;;
2020/01/25 12:45:31;;;;;;;25.3;11;;;;;;;9.38;52.25586;940.9222;;;;
2020/01/25 12:47:55;;;;;;;34.6;11.2;;;;;;;9.41;52.55566;940.9973;;;;
2020/01/25 12:50:20;;;;;;;27.5;11.3;;;;;;;9.4;51.82422;940.9098;;;;
2020/01/25 12:52:45;;;;;;;33.8;10.7;;;;;;;9.36;50.05469;940.9091;;;;
2020/01/25 12:55:10;;;;;;;25.2;10.7;;;;;;;9.35;54.55078;940.9604;;;;
2020/01/25 12:57:36;;;;;;;26.9;11.3;;;;;;;9.33;55.63086;940.9674;;;;
2020/01/25 13:00:05;;;;;;;27;11.4;;;;;;;9.28;54.24805;940.918;;;;
2020/01/25 13:02:26;;;;;;;28.3;11;;;;;;;9.2;53.90723;940.8749;;;;
2020/01/25 13:04:51;;;;;;;25;10.8;;;;;;;9.15;55.2334;940.7302;;;;
2020/01/25 13:07:16;;;;;;;29;10.6;;;;;;;8.88;53.85547;940.8295;;;;
2020/01/25 13:09:41;;;;;;;20.8;10.4;;;;;;;8.74;53.33691;940.7509;;;;
2020/01/25 13:12:06;;;;;;;25.2;11;;;;;;;8.71;54.6748;940.694;;;;
2020/01/25 13:14:32;;;;;;;30.5;11;;;;;;;8.74;54.49805;940.7685;;;;
2020/01/25 13:16:57;;;;;;;26.2;10.9;;;;;;;8.76;52.7041;940.7126;;;;
2020/01/25 13:19:22;;;;;;;26.7;10.8;;;;;;;8.78;52.48828;940.6978;;;;
2020/01/25 13:21:48;;;;;;;24.9;11;;;;;;;8.76;53.1582;940.6213;;;;
2020/01/25 13:24:13;;;;;;;28.5;11.1;;;;;;;8.82;52.17578;940.5781;;;;
2020/01/25 13:26:38;;;;;;;26.2;10.8;;;;;;;8.9;54.34668;940.6616;;;;
2020/01/25 13:29:04;;;;;;;27.1;10.6;;;;;;;8.92;50.92578;940.6191;;;;
2020/01/25 13:31:29;;;;;;;29.5;10.8;;;;;;;8.87;50.71484;940.6387;;;;
2020/01/25 13:33:54;;;;;;;21.7;10.8;;;;;;;8.84;53.13477;940.5748;;;;
2020/01/25 13:36:19;;;;;;;23.2;10.4;;;;;;;8.87;53.39941;940.6411;;;;
2020/01/25 13:38:44;;;;;;;28.1;10.7;;;;;;;8.89;53.28809;940.6305;;;;
2020/01/25 13:41:09;;;;;;;24.8;10.7;;;;;;;8.88;52.80859;940.6239;;;;
2020/01/25 13:43:35;;;;;;;30.8;11.6;;;;;;;8.72;53.36914;940.6188;;;;
2020/01/25 13:46:00;;;;;;;30.7;11.5;;;;;;;8.59;53.48926;940.5698;;;;
2020/01/25 13:48:25;;;;;;;40.4;14.8;;;;;;;8.6;53.53613;940.5947;;;;
2020/01/25 13:50:50;;;;;;;31.6;12.6;;;;;;;8.57;56.87402;940.6117;;;;
2020/01/25 13:53:16;;;;;;;34.9;12.7;;;;;;;8.48;55.12305;940.5891;;;;
2020/01/25 13:55:40;;;;;;;29.8;13;;;;;;;8.41;54.9541;940.5959;;;;
2020/01/25 13:58:06;;;;;;;34.3;14.9;;;;;;;8.29;54.87207;940.5622;;;;
2020/01/25 14:00:34;;;;;;;35.5;15.5;;;;;;;8.19;55.49414;940.5781;;;;
2020/01/25 14:02:56;;;;;;;30;13.9;;;;;;;8.07;57.21777;940.5977;;;;
2020/01/25 14:05:21;;;;;;;33.7;14.2;;;;;;;7.96;56.88379;940.6074;;;;
2020/01/25 14:07:46;;;;;;;38.6;16.2;;;;;;;7.92;55.69922;940.5519;;;;
2020/01/25 14:10:12;;;;;;;34.9;15.2;;;;;;;7.91;57.2627;940.5215;;;;
2020/01/25 14:12:37;;;;;;;54.9;18;;;;;;;7.84;56.19922;940.5675;;;;
2020/01/25 14:15:02;;;;;;;43.5;19.2;;;;;;;7.73;55.5498;940.5496;;;;
2020/01/25 14:17:27;;;;;;;46;18.8;;;;;;;7.76;55.34863;940.5979;;;;
2020/01/25 14:19:53;;;;;;;50.4;20.1;;;;;;;7.8;54.67383;940.5812;;;;
2020/01/25 14:22:18;;;;;;;38.1;18.1;;;;;;;7.89;54.42383;940.5765;;;;
2020/01/25 14:24:43;;;;;;;47.6;18.5;;;;;;;7.98;56.77344;940.5999;;;;
2020/01/25 14:27:09;;;;;;;42.3;18.8;;;;;;;8.08;56.32031;940.5842;;;;
2020/01/25 14:29:34;;;;;;;43.6;18.2;;;;;;;8.05;54.78418;940.5369;;;;
2020/01/25 14:31:59;;;;;;;62.5;21.7;;;;;;;8.08;54.89063;940.5549;;;;
2020/01/25 14:34:24;;;;;;;92.6;33.6;;;;;;;8.1;55.6543;940.5142;;;;
2020/01/25 14:36:49;;;;;;;71.1;32.4;;;;;;;8.12;55.13477;940.548;;;;
2020/01/25 14:39:14;;;;;;;78.3;36.4;;;;;;;8.15;55.89844;940.505;;;;